sensor_id;sensor_type;location;lat;lon;timestamp;temperature;humidity
41290;DHT22;36117;46.680;11.154;2022-09-12T00:00:28;19.70;61.90
41290;DHT22;36117;46.680;11.154;2022-09-12T00:02:55;19.80;61.80
41290;DHT22;36117;46.680;11.154;2022-09-12T00:05:21;19.80;61.50
41290;DHT22;36117;46.680;11.154;2022-09-12T00:07:48;19.80;61.50
41290;DHT22;36117;46.680;11.154;2022-09-12T00:10:14;19.60;61.10
41290;DHT22;36117;46.680;11.154;2022-09-12T00:12:40;19.20;63.40
41290;DHT22;36117;46.680;11.154;2022-09-12T00:15:06;19.20;64.10
41290;DHT22;36117;46.680;11.154;2022-09-12T00:17:34;19.20;64.20
41290;DHT22;36117;46.680;11.154;2022-09-12T00:20:00;19.10;64.60
41290;DHT22;36117;46.680;11.154;2022-09-12T00:22:25;19.00;65.10
41290;DHT22;36117;46.680;11.154;2022-09-12T00:24:51;18.80;65.10
41290;DHT22;36117;46.680;11.154;2022-09-12T00:27:17;18.90;65.70
41290;DHT22;36117;46.680;11.154;2022-09-12T00:29:43;18.70;66.10
41290;DHT22;36117;46.680;11.154;2022-09-12T00:32:09;18.90;65.40
41290;DHT22;36117;46.680;11.154;2022-09-12T00:34:35;19.00;64.80
41290;DHT22;36117;46.680;11.154;2022-09-12T00:37:02;19.10;65.00
41290;DHT22;36117;46.680;11.154;2022-09-12T00:39:28;19.20;64.60
41290;DHT22;36117;46.680;11.154;2022-09-12T00:41:53;19.30;64.40
41290;DHT22;36117;46.680;11.154;2022-09-12T00:49:58;19.30;63.80
41290;DHT22;36117;46.680;11.154;2022-09-12T00:52:34;19.20;61.40
41290;DHT22;36117;46.680;11.154;2022-09-12T00:55:20;19.30;61.90
41290;DHT22;36117;46.680;11.154;2022-09-12T00:57:59;19.10;62.60
41290;DHT22;36117;46.680;11.154;2022-09-12T01:00:28;19.00;64.90
41290;DHT22;36117;46.680;11.154;2022-09-12T01:03:07;19.30;65.10
41290;DHT22;36117;46.680;11.154;2022-09-12T01:05:36;19.40;64.60
41290;DHT22;36117;46.680;11.154;2022-09-12T01:08:04;19.00;63.90
41290;DHT22;36117;46.680;11.154;2022-09-12T01:10:31;19.00;65.00
41290;DHT22;36117;46.680;11.154;2022-09-12T01:12:59;19.00;65.30
41290;DHT22;36117;46.680;11.154;2022-09-12T01:15:25;18.80;64.40
41290;DHT22;36117;46.680;11.154;2022-09-12T01:20:43;18.40;64.00
41290;DHT22;36117;46.680;11.154;2022-09-12T01:32:32;18.30;65.30
41290;DHT22;36117;46.680;11.154;2022-09-12T01:35:51;18.30;65.40
41290;DHT22;36117;46.680;11.154;2022-09-12T01:43:54;18.70;64.40
41290;DHT22;36117;46.680;11.154;2022-09-12T01:49:45;18.80;63.60
41290;DHT22;36117;46.680;11.154;2022-09-12T01:52:23;18.70;63.70
41290;DHT22;36117;46.680;11.154;2022-09-12T01:57:38;18.60;63.10
41290;DHT22;36117;46.680;11.154;2022-09-12T02:00:09;18.30;64.20
41290;DHT22;36117;46.680;11.154;2022-09-12T02:02:50;18.20;64.90
41290;DHT22;36117;46.680;11.154;2022-09-12T02:05:24;17.90;65.20
41290;DHT22;36117;46.680;11.154;2022-09-12T02:08:12;17.80;65.60
41290;DHT22;36117;46.680;11.154;2022-09-12T02:10:59;17.70;66.10
41290;DHT22;36117;46.680;11.154;2022-09-12T02:13:39;17.80;65.70
41290;DHT22;36117;46.680;11.154;2022-09-12T02:16:20;17.80;65.60
41290;DHT22;36117;46.680;11.154;2022-09-12T02:19:15;17.90;65.50
41290;DHT22;36117;46.680;11.154;2022-09-12T02:21:51;18.20;65.00
41290;DHT22;36117;46.680;11.154;2022-09-12T02:24:18;18.50;64.20
41290;DHT22;36117;46.680;11.154;2022-09-12T02:27:05;18.40;64.40
41290;DHT22;36117;46.680;11.154;2022-09-12T02:29:34;18.30;65.50
41290;DHT22;36117;46.680;11.154;2022-09-12T02:32:37;18.20;65.20
41290;DHT22;36117;46.680;11.154;2022-09-12T02:35:34;18.30;65.50
41290;DHT22;36117;46.680;11.154;2022-09-12T02:38:08;18.40;65.60
41290;DHT22;36117;46.680;11.154;2022-09-12T02:40:35;18.50;64.90
41290;DHT22;36117;46.680;11.154;2022-09-12T02:43:04;18.40;65.30
41290;DHT22;36117;46.680;11.154;2022-09-12T02:45:30;18.40;65.00
41290;DHT22;36117;46.680;11.154;2022-09-12T02:50:39;18.40;65.40
41290;DHT22;36117;46.680;11.154;2022-09-12T02:53:07;18.40;65.50
41290;DHT22;36117;46.680;11.154;2022-09-12T02:55:35;18.20;65.90
41290;DHT22;36117;46.680;11.154;2022-09-12T02:58:04;18.40;65.50
41290;DHT22;36117;46.680;11.154;2022-09-12T03:00:36;18.30;64.70
41290;DHT22;36117;46.680;11.154;2022-09-12T03:08:23;18.00;65.00
41290;DHT22;36117;46.680;11.154;2022-09-12T03:11:22;17.90;65.60
41290;DHT22;36117;46.680;11.154;2022-09-12T03:20:14;17.50;67.10
41290;DHT22;36117;46.680;11.154;2022-09-12T03:23:37;17.50;66.90
41290;DHT22;36117;46.680;11.154;2022-09-12T03:25:53;17.60;67.20
41290;DHT22;36117;46.680;11.154;2022-09-12T03:28:22;17.50;67.50
41290;DHT22;36117;46.680;11.154;2022-09-12T03:30:48;17.30;66.90
41290;DHT22;36117;46.680;11.154;2022-09-12T03:33:20;17.20;67.80
41290;DHT22;36117;46.680;11.154;2022-09-12T03:35:47;17.50;67.70
41290;DHT22;36117;46.680;11.154;2022-09-12T03:38:14;17.80;66.90
41290;DHT22;36117;46.680;11.154;2022-09-12T03:40:40;17.70;66.70
41290;DHT22;36117;46.680;11.154;2022-09-12T03:43:07;17.60;67.30
41290;DHT22;36117;46.680;11.154;2022-09-12T03:45:33;17.30;67.90
41290;DHT22;36117;46.680;11.154;2022-09-12T03:48:18;17.10;68.90
41290;DHT22;36117;46.680;11.154;2022-09-12T03:50:43;17.00;69.60
41290;DHT22;36117;46.680;11.154;2022-09-12T03:53:09;16.90;69.90
41290;DHT22;36117;46.680;11.154;2022-09-12T03:55:37;16.90;70.00
41290;DHT22;36117;46.680;11.154;2022-09-12T03:58:03;16.90;69.70
41290;DHT22;36117;46.680;11.154;2022-09-12T04:00:29;17.20;69.50
41290;DHT22;36117;46.680;11.154;2022-09-12T04:02:55;17.40;68.40
41290;DHT22;36117;46.680;11.154;2022-09-12T04:05:23;17.50;68.20
41290;DHT22;36117;46.680;11.154;2022-09-12T04:07:49;17.40;68.00
41290;DHT22;36117;46.680;11.154;2022-09-12T04:10:15;17.60;67.70
41290;DHT22;36117;46.680;11.154;2022-09-12T04:12:41;17.70;67.30
41290;DHT22;36117;46.680;11.154;2022-09-12T04:15:07;17.70;67.00
41290;DHT22;36117;46.680;11.154;2022-09-12T04:17:34;17.60;67.00
41290;DHT22;36117;46.680;11.154;2022-09-12T04:20:00;17.50;67.40
41290;DHT22;36117;46.680;11.154;2022-09-12T04:22:26;17.40;67.00
41290;DHT22;36117;46.680;11.154;2022-09-12T04:24:52;17.20;67.80
41290;DHT22;36117;46.680;11.154;2022-09-12T04:27:17;17.20;68.00
41290;DHT22;36117;46.680;11.154;2022-09-12T04:29:43;17.20;67.80
41290;DHT22;36117;46.680;11.154;2022-09-12T04:32:09;17.30;67.80
41290;DHT22;36117;46.680;11.154;2022-09-12T04:34:36;17.00;68.10
41290;DHT22;36117;46.680;11.154;2022-09-12T04:37:02;17.30;68.30
41290;DHT22;36117;46.680;11.154;2022-09-12T04:39:27;17.50;68.10
41290;DHT22;36117;46.680;11.154;2022-09-12T04:41:53;17.40;68.10
41290;DHT22;36117;46.680;11.154;2022-09-12T04:44:19;17.30;68.70
41290;DHT22;36117;46.680;11.154;2022-09-12T04:46:45;16.90;69.40
41290;DHT22;36117;46.680;11.154;2022-09-12T04:49:13;16.90;70.10
41290;DHT22;36117;46.680;11.154;2022-09-12T04:51:41;17.00;69.90
41290;DHT22;36117;46.680;11.154;2022-09-12T04:54:11;17.10;69.10
41290;DHT22;36117;46.680;11.154;2022-09-12T04:56:38;17.00;68.80
41290;DHT22;36117;46.680;11.154;2022-09-12T04:59:05;17.10;69.60
41290;DHT22;36117;46.680;11.154;2022-09-12T05:03:57;17.40;69.10
41290;DHT22;36117;46.680;11.154;2022-09-12T05:06:27;17.10;69.30
41290;DHT22;36117;46.680;11.154;2022-09-12T05:08:53;16.90;69.80
41290;DHT22;36117;46.680;11.154;2022-09-12T05:11:22;17.10;70.60
41290;DHT22;36117;46.680;11.154;2022-09-12T05:13:48;17.20;69.20
41290;DHT22;36117;46.680;11.154;2022-09-12T05:16:16;17.30;70.00
41290;DHT22;36117;46.680;11.154;2022-09-12T05:18:42;17.20;68.90
41290;DHT22;36117;46.680;11.154;2022-09-12T05:21:13;16.90;69.40
41290;DHT22;36117;46.680;11.154;2022-09-12T05:23:39;17.00;70.00
41290;DHT22;36117;46.680;11.154;2022-09-12T05:26:06;17.10;69.10
41290;DHT22;36117;46.680;11.154;2022-09-12T05:28:34;17.30;68.90
41290;DHT22;36117;46.680;11.154;2022-09-12T05:31:11;17.20;68.60
41290;DHT22;36117;46.680;11.154;2022-09-12T05:33:39;17.50;68.40
41290;DHT22;36117;46.680;11.154;2022-09-12T05:36:08;17.40;68.80
41290;DHT22;36117;46.680;11.154;2022-09-12T05:38:35;17.60;68.30
41290;DHT22;36117;46.680;11.154;2022-09-12T05:41:12;17.20;68.80
41290;DHT22;36117;46.680;11.154;2022-09-12T05:43:39;17.30;70.20
41290;DHT22;36117;46.680;11.154;2022-09-12T05:46:10;17.30;70.40
41290;DHT22;36117;46.680;11.154;2022-09-12T05:48:38;17.30;70.60
41290;DHT22;36117;46.680;11.154;2022-09-12T05:51:09;17.30;70.30
41290;DHT22;36117;46.680;11.154;2022-09-12T05:53:36;17.40;69.90
41290;DHT22;36117;46.680;11.154;2022-09-12T05:56:10;17.30;70.30
41290;DHT22;36117;46.680;11.154;2022-09-12T05:58:40;17.00;70.90
41290;DHT22;36117;46.680;11.154;2022-09-12T06:01:14;17.00;71.50
41290;DHT22;36117;46.680;11.154;2022-09-12T06:03:44;17.50;70.70
41290;DHT22;36117;46.680;11.154;2022-09-12T06:06:11;17.10;71.40
41290;DHT22;36117;46.680;11.154;2022-09-12T06:08:41;17.30;71.00
41290;DHT22;36117;46.680;11.154;2022-09-12T06:11:28;17.30;70.90
41290;DHT22;36117;46.680;11.154;2022-09-12T06:13:56;17.40;70.70
41290;DHT22;36117;46.680;11.154;2022-09-12T06:16:25;17.20;71.00
41290;DHT22;36117;46.680;11.154;2022-09-12T06:18:56;17.30;71.10
41290;DHT22;36117;46.680;11.154;2022-09-12T06:21:24;17.20;70.40
41290;DHT22;36117;46.680;11.154;2022-09-12T06:23:52;17.80;69.00
41290;DHT22;36117;46.680;11.154;2022-09-12T06:26:18;18.60;67.20
41290;DHT22;36117;46.680;11.154;2022-09-12T06:28:48;19.50;64.20
41290;DHT22;36117;46.680;11.154;2022-09-12T06:31:20;20.00;62.20
41290;DHT22;36117;46.680;11.154;2022-09-12T06:33:47;20.60;61.30
41290;DHT22;36117;46.680;11.154;2022-09-12T06:36:18;20.90;59.70
41290;DHT22;36117;46.680;11.154;2022-09-12T06:38:45;22.00;56.80
41290;DHT22;36117;46.680;11.154;2022-09-12T06:41:13;21.60;56.00
41290;DHT22;36117;46.680;11.154;2022-09-12T06:43:40;21.50;57.20
41290;DHT22;36117;46.680;11.154;2022-09-12T06:46:07;22.20;56.40
41290;DHT22;36117;46.680;11.154;2022-09-12T06:48:34;21.80;56.00
41290;DHT22;36117;46.680;11.154;2022-09-12T06:51:04;22.50;54.80
41290;DHT22;36117;46.680;11.154;2022-09-12T06:53:32;23.10;53.30
41290;DHT22;36117;46.680;11.154;2022-09-12T06:56:00;22.50;53.70
41290;DHT22;36117;46.680;11.154;2022-09-12T06:58:29;23.20;52.50
41290;DHT22;36117;46.680;11.154;2022-09-12T07:03:40;24.10;48.10
41290;DHT22;36117;46.680;11.154;2022-09-12T07:06:14;24.00;48.70
41290;DHT22;36117;46.680;11.154;2022-09-12T07:08:40;24.40;46.20
41290;DHT22;36117;46.680;11.154;2022-09-12T07:13:39;25.50;44.80
41290;DHT22;36117;46.680;11.154;2022-09-12T07:16:06;26.20;43.00
41290;DHT22;36117;46.680;11.154;2022-09-12T07:18:33;26.10;42.80
41290;DHT22;36117;46.680;11.154;2022-09-12T07:21:02;26.10;41.60
41290;DHT22;36117;46.680;11.154;2022-09-12T07:23:28;27.40;41.00
41290;DHT22;36117;46.680;11.154;2022-09-12T07:25:56;27.40;40.10
41290;DHT22;36117;46.680;11.154;2022-09-12T07:28:25;25.70;41.60
41290;DHT22;36117;46.680;11.154;2022-09-12T07:30:51;26.80;42.10
41290;DHT22;36117;46.680;11.154;2022-09-12T07:33:28;27.00;41.60
41290;DHT22;36117;46.680;11.154;2022-09-12T07:35:54;27.70;40.70
41290;DHT22;36117;46.680;11.154;2022-09-12T07:38:24;28.60;40.00
41290;DHT22;36117;46.680;11.154;2022-09-12T07:40:50;29.60;38.00
41290;DHT22;36117;46.680;11.154;2022-09-12T07:43:16;30.50;35.60
41290;DHT22;36117;46.680;11.154;2022-09-12T07:45:42;30.70;35.10
41290;DHT22;36117;46.680;11.154;2022-09-12T07:48:08;29.80;36.10
41290;DHT22;36117;46.680;11.154;2022-09-12T07:50:35;30.50;35.50
41290;DHT22;36117;46.680;11.154;2022-09-12T07:53:02;31.20;34.00
41290;DHT22;36117;46.680;11.154;2022-09-12T07:55:28;31.50;34.20
41290;DHT22;36117;46.680;11.154;2022-09-12T07:57:54;32.40;33.50
41290;DHT22;36117;46.680;11.154;2022-09-12T08:00:21;30.50;33.60
41290;DHT22;36117;46.680;11.154;2022-09-12T08:02:53;29.10;34.70
41290;DHT22;36117;46.680;11.154;2022-09-12T08:05:19;29.20;35.80
41290;DHT22;36117;46.680;11.154;2022-09-12T08:07:46;30.20;35.50
41290;DHT22;36117;46.680;11.154;2022-09-12T08:10:12;30.50;35.00
41290;DHT22;36117;46.680;11.154;2022-09-12T08:12:37;30.50;34.10
41290;DHT22;36117;46.680;11.154;2022-09-12T08:15:04;28.30;36.10
41290;DHT22;36117;46.680;11.154;2022-09-12T08:17:29;27.10;37.60
41290;DHT22;36117;46.680;11.154;2022-09-12T08:19:55;29.50;36.10
41290;DHT22;36117;46.680;11.154;2022-09-12T08:22:22;29.90;35.10
41290;DHT22;36117;46.680;11.154;2022-09-12T08:24:48;29.80;35.50
41290;DHT22;36117;46.680;11.154;2022-09-12T08:27:14;29.80;35.20
41290;DHT22;36117;46.680;11.154;2022-09-12T08:29:40;29.70;35.80
41290;DHT22;36117;46.680;11.154;2022-09-12T08:32:06;28.90;36.70
41290;DHT22;36117;46.680;11.154;2022-09-12T08:34:33;29.30;36.90
41290;DHT22;36117;46.680;11.154;2022-09-12T08:36:59;29.80;36.00
41290;DHT22;36117;46.680;11.154;2022-09-12T08:39:24;30.20;35.40
41290;DHT22;36117;46.680;11.154;2022-09-12T08:42:04;31.00;34.80
41290;DHT22;36117;46.680;11.154;2022-09-12T08:47:36;29.50;35.60
41290;DHT22;36117;46.680;11.154;2022-09-12T08:50:11;30.80;34.70
41290;DHT22;36117;46.680;11.154;2022-09-12T08:53:03;31.80;33.30
41290;DHT22;36117;46.680;11.154;2022-09-12T08:55:41;32.70;32.00
41290;DHT22;36117;46.680;11.154;2022-09-12T08:58:13;30.70;32.50
41290;DHT22;36117;46.680;11.154;2022-09-12T09:03:53;32.80;32.50
41290;DHT22;36117;46.680;11.154;2022-09-12T09:23:33;33.60;30.90
41290;DHT22;36117;46.680;11.154;2022-09-12T09:26:20;34.40;30.00
41290;DHT22;36117;46.680;11.154;2022-09-12T09:28:56;34.30;30.30
41290;DHT22;36117;46.680;11.154;2022-09-12T09:31:27;34.80;30.20
41290;DHT22;36117;46.680;11.154;2022-09-12T09:33:55;34.70;30.30
41290;DHT22;36117;46.680;11.154;2022-09-12T09:36:51;34.40;30.00
41290;DHT22;36117;46.680;11.154;2022-09-12T09:44:28;32.00;31.10
41290;DHT22;36117;46.680;11.154;2022-09-12T09:46:56;33.30;31.30
41290;DHT22;36117;46.680;11.154;2022-09-12T09:49:24;34.10;29.70
41290;DHT22;36117;46.680;11.154;2022-09-12T09:51:51;35.20;29.70
41290;DHT22;36117;46.680;11.154;2022-09-12T09:54:48;33.00;30.00
41290;DHT22;36117;46.680;11.154;2022-09-12T09:57:40;34.90;29.20
41290;DHT22;36117;46.680;11.154;2022-09-12T10:00:31;34.50;29.50
41290;DHT22;36117;46.680;11.154;2022-09-12T10:05:53;36.00;28.90
41290;DHT22;36117;46.680;11.154;2022-09-12T10:11:04;34.60;29.20
41290;DHT22;36117;46.680;11.154;2022-09-12T10:13:40;36.70;29.00
41290;DHT22;36117;46.680;11.154;2022-09-12T10:18:43;37.20;28.30
41290;DHT22;36117;46.680;11.154;2022-09-12T10:21:19;36.60;28.00
41290;DHT22;36117;46.680;11.154;2022-09-12T10:24:03;37.70;28.10
41290;DHT22;36117;46.680;11.154;2022-09-12T10:26:36;36.70;28.00
41290;DHT22;36117;46.680;11.154;2022-09-12T10:29:15;36.30;28.20
41290;DHT22;36117;46.680;11.154;2022-09-12T10:31:47;36.70;28.00
41290;DHT22;36117;46.680;11.154;2022-09-12T10:34:37;35.60;27.60
41290;DHT22;36117;46.680;11.154;2022-09-12T10:37:08;35.10;28.10
41290;DHT22;36117;46.680;11.154;2022-09-12T10:39:36;32.60;29.00
41290;DHT22;36117;46.680;11.154;2022-09-12T10:42:03;32.10;30.70
41290;DHT22;36117;46.680;11.154;2022-09-12T10:44:33;33.90;30.70
41290;DHT22;36117;46.680;11.154;2022-09-12T10:47:19;35.00;30.00
41290;DHT22;36117;46.680;11.154;2022-09-12T10:49:45;35.20;29.50
41290;DHT22;36117;46.680;11.154;2022-09-12T10:52:24;33.40;29.60
41290;DHT22;36117;46.680;11.154;2022-09-12T10:54:53;33.70;30.00
41290;DHT22;36117;46.680;11.154;2022-09-12T10:57:38;32.50;29.90
41290;DHT22;36117;46.680;11.154;2022-09-12T11:00:15;32.10;30.50
41290;DHT22;36117;46.680;11.154;2022-09-12T11:03:08;32.30;30.90
41290;DHT22;36117;46.680;11.154;2022-09-12T11:05:57;32.30;30.70
41290;DHT22;36117;46.680;11.154;2022-09-12T11:11:08;32.00;30.00
41290;DHT22;36117;46.680;11.154;2022-09-12T11:19:44;32.10;30.80
41290;DHT22;36117;46.680;11.154;2022-09-12T11:25:28;31.30;30.70
41290;DHT22;36117;46.680;11.154;2022-09-12T11:33:51;30.90;30.20
41290;DHT22;36117;46.680;11.154;2022-09-12T11:39:06;30.30;31.50
41290;DHT22;36117;46.680;11.154;2022-09-12T11:41:41;30.30;31.50
41290;DHT22;36117;46.680;11.154;2022-09-12T11:44:19;30.40;31.80
41290;DHT22;36117;46.680;11.154;2022-09-12T11:46:47;31.10;30.90
41290;DHT22;36117;46.680;11.154;2022-09-12T11:49:34;30.30;31.60
41290;DHT22;36117;46.680;11.154;2022-09-12T11:54:38;30.50;32.20
41290;DHT22;36117;46.680;11.154;2022-09-12T11:59:53;30.40;31.80
41290;DHT22;36117;46.680;11.154;2022-09-12T12:02:29;30.40;32.10
41290;DHT22;36117;46.680;11.154;2022-09-12T12:07:34;30.20;31.80
41290;DHT22;36117;46.680;11.154;2022-09-12T12:10:02;30.00;32.40
41290;DHT22;36117;46.680;11.154;2022-09-12T12:12:30;30.20;31.40
41290;DHT22;36117;46.680;11.154;2022-09-12T12:14:57;30.30;31.10
41290;DHT22;36117;46.680;11.154;2022-09-12T12:17:24;30.10;31.90
41290;DHT22;36117;46.680;11.154;2022-09-12T12:20:03;30.00;32.90
41290;DHT22;36117;46.680;11.154;2022-09-12T12:22:30;29.60;33.60
41290;DHT22;36117;46.680;11.154;2022-09-12T12:27:57;30.10;33.20
41290;DHT22;36117;46.680;11.154;2022-09-12T12:35:44;30.00;34.90
41290;DHT22;36117;46.680;11.154;2022-09-12T12:43:47;30.90;33.70
41290;DHT22;36117;46.680;11.154;2022-09-12T12:46:15;31.60;33.00
41290;DHT22;36117;46.680;11.154;2022-09-12T12:56:48;30.60;32.80
41290;DHT22;36117;46.680;11.154;2022-09-12T12:59:24;31.00;33.20
41290;DHT22;36117;46.680;11.154;2022-09-12T13:01:53;30.80;33.00
41290;DHT22;36117;46.680;11.154;2022-09-12T13:04:23;30.10;33.90
41290;DHT22;36117;46.680;11.154;2022-09-12T13:07:04;30.30;34.20
41290;DHT22;36117;46.680;11.154;2022-09-12T13:09:36;29.80;34.20
41290;DHT22;36117;46.680;11.154;2022-09-12T13:12:04;29.90;34.10
41290;DHT22;36117;46.680;11.154;2022-09-12T13:17:16;30.20;35.10
41290;DHT22;36117;46.680;11.154;2022-09-12T13:19:44;31.00;33.70
41290;DHT22;36117;46.680;11.154;2022-09-12T13:22:10;31.10;33.20
41290;DHT22;36117;46.680;11.154;2022-09-12T13:24:47;30.60;33.80
41290;DHT22;36117;46.680;11.154;2022-09-12T13:27:24;31.00;33.50
41290;DHT22;36117;46.680;11.154;2022-09-12T13:30:10;31.20;33.30
41290;DHT22;36117;46.680;11.154;2022-09-12T13:32:38;31.10;33.90
41290;DHT22;36117;46.680;11.154;2022-09-12T13:44:59;30.30;35.00
41290;DHT22;36117;46.680;11.154;2022-09-12T13:47:34;30.80;34.60
41290;DHT22;36117;46.680;11.154;2022-09-12T13:50:03;31.10;34.30
41290;DHT22;36117;46.680;11.154;2022-09-12T13:52:33;31.10;34.50
41290;DHT22;36117;46.680;11.154;2022-09-12T13:55:04;30.90;34.60
41290;DHT22;36117;46.680;11.154;2022-09-12T13:57:37;30.90;34.80
41290;DHT22;36117;46.680;11.154;2022-09-12T14:00:18;30.90;34.90
41290;DHT22;36117;46.680;11.154;2022-09-12T14:02:46;30.70;35.30
41290;DHT22;36117;46.680;11.154;2022-09-12T14:05:23;30.30;35.30
41290;DHT22;36117;46.680;11.154;2022-09-12T14:07:55;30.70;35.50
41290;DHT22;36117;46.680;11.154;2022-09-12T14:10:29;30.40;35.20
41290;DHT22;36117;46.680;11.154;2022-09-12T14:12:58;30.40;35.80
41290;DHT22;36117;46.680;11.154;2022-09-12T14:15:31;30.60;36.20
41290;DHT22;36117;46.680;11.154;2022-09-12T14:17:59;30.30;35.10
41290;DHT22;36117;46.680;11.154;2022-09-12T14:20:28;30.50;35.80
41290;DHT22;36117;46.680;11.154;2022-09-12T14:23:02;30.70;35.30
41290;DHT22;36117;46.680;11.154;2022-09-12T14:25:35;30.90;34.90
41290;DHT22;36117;46.680;11.154;2022-09-12T14:28:04;31.30;35.10
41290;DHT22;36117;46.680;11.154;2022-09-12T14:30:33;31.30;35.20
41290;DHT22;36117;46.680;11.154;2022-09-12T14:35:41;30.90;35.70
41290;DHT22;36117;46.680;11.154;2022-09-12T14:40:47;30.50;37.10
41290;DHT22;36117;46.680;11.154;2022-09-12T14:43:19;30.10;37.40
41290;DHT22;36117;46.680;11.154;2022-09-12T14:45:53;30.20;37.30
41290;DHT22;36117;46.680;11.154;2022-09-12T14:48:19;29.80;37.90
41290;DHT22;36117;46.680;11.154;2022-09-12T14:50:49;29.80;38.40
41290;DHT22;36117;46.680;11.154;2022-09-12T14:55:48;29.50;38.70
41290;DHT22;36117;46.680;11.154;2022-09-12T15:01:20;29.90;38.50
41290;DHT22;36117;46.680;11.154;2022-09-12T15:06:26;30.50;37.90
41290;DHT22;36117;46.680;11.154;2022-09-12T15:08:54;30.30;37.90
41290;DHT22;36117;46.680;11.154;2022-09-12T15:11:21;30.10;38.50
41290;DHT22;36117;46.680;11.154;2022-09-12T15:13:47;30.20;38.60
41290;DHT22;36117;46.680;11.154;2022-09-12T15:16:14;30.30;38.60
41290;DHT22;36117;46.680;11.154;2022-09-12T15:18:40;30.20;38.80
41290;DHT22;36117;46.680;11.154;2022-09-12T15:21:09;29.60;38.90
41290;DHT22;36117;46.680;11.154;2022-09-12T15:26:15;29.60;39.40
41290;DHT22;36117;46.680;11.154;2022-09-12T15:28:41;29.40;39.50
41290;DHT22;36117;46.680;11.154;2022-09-12T15:31:14;29.60;39.60
41290;DHT22;36117;46.680;11.154;2022-09-12T15:33:40;29.60;39.80
41290;DHT22;36117;46.680;11.154;2022-09-12T15:36:18;29.60;39.60
41290;DHT22;36117;46.680;11.154;2022-09-12T15:38:45;30.10;39.30
41290;DHT22;36117;46.680;11.154;2022-09-12T15:44:11;30.30;39.20
41290;DHT22;36117;46.680;11.154;2022-09-12T15:46:38;30.20;39.30
41290;DHT22;36117;46.680;11.154;2022-09-12T15:49:04;29.80;39.90
41290;DHT22;36117;46.680;11.154;2022-09-12T15:51:29;30.00;39.90
41290;DHT22;36117;46.680;11.154;2022-09-12T15:53:55;30.10;39.70
41290;DHT22;36117;46.680;11.154;2022-09-12T15:58:50;30.00;38.50
41290;DHT22;36117;46.680;11.154;2022-09-12T16:01:17;29.80;39.60
41290;DHT22;36117;46.680;11.154;2022-09-12T16:03:46;29.50;40.20
41290;DHT22;36117;46.680;11.154;2022-09-12T16:06:12;29.60;40.40
41290;DHT22;36117;46.680;11.154;2022-09-12T16:08:40;29.70;40.60
41290;DHT22;36117;46.680;11.154;2022-09-12T16:11:16;29.60;40.00
41290;DHT22;36117;46.680;11.154;2022-09-12T16:13:43;29.90;39.60
41290;DHT22;36117;46.680;11.154;2022-09-12T16:16:09;30.20;39.90
41290;DHT22;36117;46.680;11.154;2022-09-12T16:18:37;29.90;39.60
41290;DHT22;36117;46.680;11.154;2022-09-12T16:21:03;29.60;40.10
41290;DHT22;36117;46.680;11.154;2022-09-12T16:23:29;29.90;38.90
41290;DHT22;36117;46.680;11.154;2022-09-12T16:26:01;29.90;39.50
41290;DHT22;36117;46.680;11.154;2022-09-12T16:28:27;29.90;40.40
41290;DHT22;36117;46.680;11.154;2022-09-12T16:31:02;29.60;40.20
41290;DHT22;36117;46.680;11.154;2022-09-12T16:33:29;29.20;41.60
41290;DHT22;36117;46.680;11.154;2022-09-12T16:36:07;28.90;42.20
41290;DHT22;36117;46.680;11.154;2022-09-12T16:38:34;29.00;42.90
41290;DHT22;36117;46.680;11.154;2022-09-12T16:41:05;28.50;43.90
41290;DHT22;36117;46.680;11.154;2022-09-12T16:43:33;28.60;44.80
41290;DHT22;36117;46.680;11.154;2022-09-12T16:46:11;28.60;45.00
41290;DHT22;36117;46.680;11.154;2022-09-12T16:48:47;28.80;44.20
41290;DHT22;36117;46.680;11.154;2022-09-12T16:51:14;29.00;42.70
41290;DHT22;36117;46.680;11.154;2022-09-12T16:53:41;29.00;43.80
41290;DHT22;36117;46.680;11.154;2022-09-12T16:56:07;29.10;42.80
41290;DHT22;36117;46.680;11.154;2022-09-12T16:58:35;29.00;42.70
41290;DHT22;36117;46.680;11.154;2022-09-12T17:01:13;28.70;42.50
41290;DHT22;36117;46.680;11.154;2022-09-12T17:03:40;28.40;42.50
41290;DHT22;36117;46.680;11.154;2022-09-12T17:06:08;28.10;43.20
41290;DHT22;36117;46.680;11.154;2022-09-12T17:08:37;27.70;43.60
41290;DHT22;36117;46.680;11.154;2022-09-12T17:11:05;27.40;44.20
41290;DHT22;36117;46.680;11.154;2022-09-12T17:13:31;27.20;44.40
41290;DHT22;36117;46.680;11.154;2022-09-12T17:15:58;27.10;44.40
41290;DHT22;36117;46.680;11.154;2022-09-12T17:18:24;27.00;45.20
41290;DHT22;36117;46.680;11.154;2022-09-12T17:20:50;26.80;45.50
41290;DHT22;36117;46.680;11.154;2022-09-12T17:23:16;26.60;45.80
41290;DHT22;36117;46.680;11.154;2022-09-12T17:25:46;26.30;46.10
41290;DHT22;36117;46.680;11.154;2022-09-12T17:28:12;26.40;46.20
41290;DHT22;36117;46.680;11.154;2022-09-12T17:30:38;26.00;46.20
41290;DHT22;36117;46.680;11.154;2022-09-12T17:33:04;25.70;46.60
41290;DHT22;36117;46.680;11.154;2022-09-12T17:35:34;25.90;47.20
41290;DHT22;36117;46.680;11.154;2022-09-12T17:38:01;25.70;47.10
41290;DHT22;36117;46.680;11.154;2022-09-12T17:40:27;25.50;47.40
41290;DHT22;36117;46.680;11.154;2022-09-12T17:42:53;25.40;48.20
41290;DHT22;36117;46.680;11.154;2022-09-12T17:45:19;25.10;48.80
41290;DHT22;36117;46.680;11.154;2022-09-12T17:47:44;25.00;49.20
41290;DHT22;36117;46.680;11.154;2022-09-12T17:50:10;24.90;49.70
41290;DHT22;36117;46.680;11.154;2022-09-12T17:52:36;24.80;50.20
41290;DHT22;36117;46.680;11.154;2022-09-12T17:55:02;24.70;50.30
41290;DHT22;36117;46.680;11.154;2022-09-12T17:57:28;24.60;50.50
41290;DHT22;36117;46.680;11.154;2022-09-12T17:59:54;24.40;51.10
41290;DHT22;36117;46.680;11.154;2022-09-12T18:02:20;24.20;51.00
41290;DHT22;36117;46.680;11.154;2022-09-12T18:04:46;24.30;51.20
41290;DHT22;36117;46.680;11.154;2022-09-12T18:07:14;24.30;51.20
41290;DHT22;36117;46.680;11.154;2022-09-12T18:09:41;24.50;50.60
41290;DHT22;36117;46.680;11.154;2022-09-12T18:12:09;24.40;50.30
41290;DHT22;36117;46.680;11.154;2022-09-12T18:14:35;24.50;50.50
41290;DHT22;36117;46.680;11.154;2022-09-12T18:17:02;24.50;50.50
41290;DHT22;36117;46.680;11.154;2022-09-12T18:19:29;24.60;50.30
41290;DHT22;36117;46.680;11.154;2022-09-12T18:21:55;24.50;50.50
41290;DHT22;36117;46.680;11.154;2022-09-12T18:24:21;24.30;51.10
41290;DHT22;36117;46.680;11.154;2022-09-12T18:26:47;24.30;51.20